Jacobus, PA

5:04 PM EDT on September 16, 2019 (GMT -0400)
Seneca Ridge - Jacobus | | Change Station

Elev 715 ft 39.87 °N, 76.70 °W | Updated 7 seconds ago

Overcast
Overcast
79.7 °F
Feels Like 82 °F
N
1
Wind Variable Wind from West
Gusts 2.0 mph

Today
High -- | Low -- °F
--% Chance of Precip.
Yesterday
High -- | Low -- °F
Precip. -- in
Pressure 29.99 in
Visibility 10.0 miles
Clouds Scattered Clouds 7000 ft
Mostly Cloudy 9000 ft
Overcast 11000 ft
Heat Index 82 °F
Dew Point 66 °F
Humidity 62%
Rainfall 0.00 in
Snow Depth Not available.
6:48 AM 7:14 PM
Waning Gibbous, 94% visible
METAR KTHV 162053Z AUTO 02005KT 10SM SCT070 BKN090 OVC110 27/17 A2999 RMK AO2 SLP154 T02720167 56014
Pressure 29.99 in
Visibility 10.0 miles
Clouds Scattered Clouds 7000 ft
Mostly Cloudy 9000 ft
Overcast 11000 ft
Heat Index 82 °F
Dew Point 66 °F
Humidity 62%
Rainfall 0.00 in
Snow Depth Not available.
6:48 AM 7:14 PM
Waning Gibbous, 94% visible
METAR KTHV 162053Z AUTO 02005KT 10SM SCT070 BKN090 OVC110 27/17 A2999 RMK AO2 SLP154 T02720167 56014

Get Severe Weather Alerts

Thanks for signing up!

Be on the lookout for a verification email in your inbox.

You'll start receiving the daily forecast at 6 AM.

×

10-Day Weather Forecast

Almanac

Astronomy

Sep. 16, 2019 Rise Set
Actual Time
Civil Twilight
Nautical Twilight
Astronomical Twilight
Moon
Length of Visible Light
Length of Day
Tomorrow will be .
, % of the Moon is Illuminated

Today's Extremes

State Highs State Lows

Community

WunderPhotos

Category 6

Welcome to Category 6. This is the collective home for Weather Underground's featured writeups by Dr. Jeff Masters (right), Bob Henson (left), Chris Burt, and other regular contributors.

Nearby

Air Quality

  Air Quality AQ Index Pollutant
Not available.

Snow Depth

Station Depth Elevation

Earthquake Activity

City Distance Mag. Time & Date
Minimum magnitude displayed is 2.5.

Coastal Water Temperatures

Place Temperature

Stations

Nearby Weather Stations

Station Location Temp. Windchill Dew Point Humidity Wind Precip. Elev Updated Type
                   

Watches & Warnings

There are currently no watches in effect.